This is the latest recevied weather packets stored in our database for station/object KO4ILY. If no packets are shown the sender has not sent any weather packets the latest 10 day(s).
| Time | Temp. | Humidity | Pressure | Rain* | Wind** | Luminosity | Snow |
|---|---|---|---|---|---|---|---|
| 1787688006 | 32.78° C | 45% | 1014.9 hPa | 0 mm | - | - | - |
| 1787684406 | 31.11° C | 49% | 1015.6 hPa | 0 mm | - | - | - |
| 1787680806 | 29.44° C | 54% | 1016.4 hPa | 0 mm | - | - | - |
| 1787677206 | 27.78° C | 56% | 1017.2 hPa | 0 mm | - | - | - |
| 1787673606 | 26.11° C | 64% | 1017.7 hPa | 0 mm | - | - | - |
| 1787670005 | 23.89° C | 70% | 1018.2 hPa | 0 mm | - | - | - |
| 1787666405 | 22.22° C | 75% | 1018.5 hPa | 0 mm | - | - | - |
| 1787662805 | 21.11° C | 76% | 1018.6 hPa | 0 mm | - | - | - |
| 1787659205 | 18.33° C | 88% | 1018.2 hPa | 0 mm | - | - | - |
| 1787655605 | 18.33° C | 93% | 1017.4 hPa | 0 mm | - | - | - |
| 1787652005 | 18.33° C | 90% | 1017 hPa | 0 mm | - | - | - |
| 1787648406 | 18.33° C | 89% | 1016.6 hPa | 0 mm | - | - | - |
| 1787644806 | 18.89° C | 87% | 1016.5 hPa | 0 mm | - | - | - |
| 1787641206 | 18.89° C | 85% | 1016.5 hPa | 0 mm | - | - | - |
| 1787637606 | 20° C | 81% | 1016.8 hPa | 0 mm | - | - | - |
| 1787634005 | 20.56° C | 75% | 1016.8 hPa | 0 mm | - | - | - |
| 1787630406 | 21.11° C | 76% | 1016.8 hPa | 0 mm | - | - | - |
| 1787626805 | 21.11° C | 76% | 1016.5 hPa | 0 mm | - | - | - |
| 1787623205 | 22.22° C | 72% | 1016 hPa | 0 mm | - | - | - |
| 1787619605 | 23.89° C | 65% | 1015.1 hPa | 0 mm | - | - | - |
| 1787616005 | 26.11° C | 54% | 1014.2 hPa | 0 mm | - | - | - |
| 1787612405 | 28.89° C | 54% | 1014 hPa | 0 mm | - | - | - |
| 1787608805 | 31.67° C | 43% | 1013.7 hPa | 0 mm | - | - | - |
| 1787605205 | 31.67° C | 48% | 1013.7 hPa | 0 mm | - | - | - |
| 1787601606 | 31.11° C | 47% | 1014.3 hPa | 0 mm | - | - | - |
* Rain latest hour (hover to see other rain measurements)
** Current wind speed in m/s (hover to see current wind gust speed)